createdAt,value
2022-09-20T00:01:51.622Z,99.90
2022-09-20T00:04:23.597Z,99.90
2022-09-20T00:06:55.498Z,99.90
2022-09-20T00:09:27.369Z,99.90
2022-09-20T00:11:59.654Z,99.90
2022-09-20T00:14:32.073Z,99.90
2022-09-20T00:17:04.208Z,99.90
2022-09-20T00:19:36.286Z,99.90
2022-09-20T00:22:08.221Z,99.90
2022-09-20T00:24:40.152Z,99.90
2022-09-20T00:27:12.576Z,99.90
2022-09-20T00:29:44.661Z,99.90
2022-09-20T00:32:16.842Z,99.90
2022-09-20T00:35:07.272Z,99.90
2022-09-20T00:37:43.974Z,99.90
2022-09-20T00:40:20.490Z,99.90
2022-09-20T00:42:56.042Z,99.90
2022-09-20T00:45:30.157Z,99.90
2022-09-20T00:48:28.086Z,99.90
2022-09-20T00:51:11.636Z,99.90
2022-09-20T00:53:50.132Z,99.90
2022-09-20T00:56:39.190Z,99.90
2022-09-20T00:59:41.276Z,99.90
2022-09-20T01:02:26.046Z,99.90
2022-09-20T01:05:01.192Z,99.90
2022-09-20T01:07:34.290Z,99.90
2022-09-20T01:10:06.833Z,99.90
2022-09-20T01:12:40.756Z,99.90
2022-09-20T01:15:15.562Z,99.90
2022-09-20T01:17:52.045Z,99.90
2022-09-20T01:20:33.309Z,99.90
2022-09-20T01:23:41.541Z,99.90
2022-09-20T01:26:40.745Z,99.90
2022-09-20T01:29:50.558Z,99.90
2022-09-20T01:32:58.208Z,99.90
2022-09-20T01:35:43.757Z,99.90
2022-09-20T01:38:30.183Z,99.90
2022-09-20T01:41:28.653Z,99.90
2022-09-20T01:44:58.390Z,99.90
2022-09-20T01:48:08.652Z,99.90
2022-09-20T01:51:21.826Z,99.90
2022-09-20T01:54:22.646Z,99.90
2022-09-20T01:57:17.064Z,99.90
2022-09-20T02:00:20.005Z,99.90
2022-09-20T02:03:34.408Z,99.90
2022-09-20T02:06:29.233Z,99.90
2022-09-20T02:09:32.949Z,99.90
2022-09-20T02:12:56.515Z,99.90
2022-09-20T02:16:03.799Z,99.90
2022-09-20T02:19:27.507Z,99.90
2022-09-20T02:22:20.957Z,99.90
2022-09-20T02:25:31.161Z,99.90
2022-09-20T02:28:52.969Z,99.90
2022-09-20T02:32:11.631Z,99.90
2022-09-20T02:35:35.484Z,99.90
2022-09-20T02:38:39.689Z,99.90
2022-09-20T02:41:45.972Z,99.90
2022-09-20T02:44:48.434Z,99.90
2022-09-20T02:47:43.298Z,99.90
2022-09-20T02:50:24.428Z,99.90
2022-09-20T02:53:43.485Z,99.90
2022-09-20T02:56:37.069Z,99.90
2022-09-20T02:59:35.302Z,99.90
2022-09-20T03:02:30.364Z,99.90
2022-09-20T03:05:44.708Z,99.90
2022-09-20T03:08:55.182Z,99.90
2022-09-20T03:12:26.259Z,99.90
2022-09-20T03:16:02.323Z,99.90
2022-09-20T03:18:52.312Z,99.90
2022-09-20T03:21:54.408Z,99.90
2022-09-20T03:25:08.682Z,99.90
2022-09-20T03:28:27.866Z,99.90
2022-09-20T03:31:28.071Z,99.90
2022-09-20T03:34:34.390Z,99.90
2022-09-20T03:37:31.854Z,99.90
2022-09-20T03:40:46.554Z,99.90
2022-09-20T03:43:43.719Z,99.90
2022-09-20T03:46:47.294Z,99.90
2022-09-20T03:49:53.027Z,99.90
2022-09-20T03:53:14.298Z,99.90
2022-09-20T03:56:44.777Z,99.90
2022-09-20T03:59:43.234Z,99.90
2022-09-20T04:02:40.732Z,99.90
2022-09-20T04:05:56.214Z,99.90
2022-09-20T04:08:53.697Z,99.90
2022-09-20T04:12:10.073Z,99.90
2022-09-20T04:15:29.236Z,99.90
2022-09-20T04:18:19.832Z,99.90
2022-09-20T04:21:12.032Z,99.90
2022-09-20T04:24:00.905Z,99.90
2022-09-20T04:27:24.464Z,99.90
2022-09-20T04:30:14.998Z,99.90
2022-09-20T04:33:23.709Z,99.90
2022-09-20T04:36:37.237Z,99.90
2022-09-20T04:40:07.496Z,99.90
2022-09-20T04:43:17.506Z,99.90
2022-09-20T04:46:30.184Z,99.90
2022-09-20T04:49:40.532Z,99.90
2022-09-20T04:52:44.079Z,99.90
2022-09-20T04:55:55.519Z,99.90
2022-09-20T04:59:06.963Z,99.90
2022-09-20T05:02:03.827Z,99.90
2022-09-20T05:05:17.370Z,99.90
2022-09-20T05:08:25.111Z,99.90
2022-09-20T05:11:27.598Z,99.90
2022-09-20T05:14:59.322Z,99.90
2022-09-20T05:18:21.513Z,99.90
2022-09-20T05:21:50.637Z,99.90
2022-09-20T05:25:07.882Z,99.90
2022-09-20T05:28:21.440Z,99.90
2022-09-20T05:31:13.649Z,99.90
2022-09-20T05:34:08.482Z,99.90
2022-09-20T05:37:10.609Z,99.90
2022-09-20T05:40:13.217Z,99.90
2022-09-20T05:43:11.365Z,99.90
2022-09-20T05:46:01.565Z,99.90
2022-09-20T05:48:58.079Z,99.90
2022-09-20T05:51:52.550Z,99.90
2022-09-20T05:55:21.819Z,99.90
2022-09-20T05:58:25.948Z,99.90
2022-09-20T06:01:30.609Z,99.90
2022-09-20T06:04:22.783Z,99.90
2022-09-20T06:07:24.992Z,99.90
2022-09-20T06:10:39.807Z,99.90
2022-09-20T06:13:50.208Z,99.90
2022-09-20T06:17:00.681Z,99.90
2022-09-20T06:20:16.056Z,99.90
2022-09-20T06:23:00.716Z,99.90
2022-09-20T06:25:53.686Z,99.90
2022-09-20T06:28:39.356Z,99.90
2022-09-20T06:31:18.055Z,99.90
2022-09-20T06:34:13.159Z,99.90
2022-09-20T06:37:11.233Z,99.90
2022-09-20T06:40:39.625Z,99.90
2022-09-20T06:43:31.609Z,99.90
2022-09-20T06:46:03.695Z,99.90
2022-09-20T06:48:39.911Z,99.90
2022-09-20T06:51:12.498Z,99.90
2022-09-20T06:53:44.777Z,99.90
2022-09-20T06:59:00.164Z,99.90
2022-09-20T07:01:32.179Z,99.90
2022-09-20T07:04:06.142Z,99.90
2022-09-20T07:06:38.706Z,99.90
2022-09-20T07:09:11.751Z,99.90
2022-09-20T07:11:45.030Z,99.90
2022-09-20T07:14:17.249Z,99.90
2022-09-20T07:16:49.969Z,99.90
2022-09-20T07:19:23.356Z,99.90
2022-09-20T07:21:55.384Z,99.90
2022-09-20T07:24:32.169Z,99.90
2022-09-20T07:27:05.190Z,99.90
2022-09-20T07:29:38.465Z,99.90
2022-09-20T07:32:12.286Z,99.90
2022-09-20T07:34:46.277Z,99.90
2022-09-20T07:37:19.307Z,99.90
2022-09-20T07:39:51.262Z,99.90
2022-09-20T07:42:23.226Z,99.90
2022-09-20T07:44:55.773Z,99.90
2022-09-20T07:47:29.195Z,99.90
2022-09-20T07:50:03.789Z,99.90
2022-09-20T07:52:36.361Z,99.90
2022-09-20T07:55:08.934Z,99.90
2022-09-20T07:57:40.952Z,99.90
2022-09-20T08:00:14.296Z,99.90
2022-09-20T08:02:46.960Z,99.90
2022-09-20T08:05:18.948Z,99.90
2022-09-20T08:07:50.884Z,99.90
2022-09-20T08:10:22.929Z,99.90
2022-09-20T08:15:51.685Z,99.90
2022-09-20T08:18:31.947Z,99.90
2022-09-20T08:21:10.195Z,99.90
2022-09-20T08:23:45.740Z,99.90
2022-09-20T08:26:21.823Z,99.90
2022-09-20T08:28:58.265Z,99.90
2022-09-20T08:31:34.476Z,99.90
2022-09-20T08:34:12.315Z,99.90
2022-09-20T08:36:47.140Z,99.90
2022-09-20T08:42:43.725Z,99.90
2022-09-20T08:45:22.712Z,99.90
2022-09-20T08:48:10.028Z,99.90
2022-09-20T08:50:46.894Z,99.90
2022-09-20T08:53:21.239Z,99.90
2022-09-20T08:55:53.654Z,99.90
2022-09-20T08:58:28.080Z,99.90
2022-09-20T09:01:00.204Z,99.90
2022-09-20T09:03:34.361Z,99.90
2022-09-20T09:06:18.340Z,99.90
2022-09-20T09:08:53.605Z,99.90
2022-09-20T09:11:30.984Z,99.90
2022-09-20T09:14:54.893Z,99.90
2022-09-20T09:17:31.116Z,99.90
2022-09-20T09:20:21.578Z,99.90
2022-09-20T09:23:08.926Z,99.90
2022-09-20T09:25:54.622Z,99.90
2022-09-20T09:28:31.763Z,99.90
2022-09-20T09:31:23.284Z,99.90
2022-09-20T09:33:56.948Z,99.90
2022-09-20T09:36:28.897Z,99.90
2022-09-20T09:39:28.614Z,99.90
2022-09-20T09:42:23.751Z,99.90
2022-09-20T09:45:11.930Z,99.90
2022-09-20T09:47:56.294Z,99.90
2022-09-20T09:50:33.524Z,99.90
2022-09-20T09:53:15.209Z,99.90
2022-09-20T09:55:52.019Z,99.90
2022-09-20T09:58:58.988Z,99.90
2022-09-20T10:02:04.440Z,99.90
2022-09-20T10:05:29.168Z,99.90
2022-09-20T10:08:49.234Z,99.90
2022-09-20T10:12:12.849Z,99.90
2022-09-20T10:15:21.272Z,99.90
2022-09-20T10:18:21.181Z,99.90
2022-09-20T10:21:13.053Z,99.90
2022-09-20T10:24:30.524Z,99.90
2022-09-20T10:27:49.860Z,99.90
2022-09-20T10:31:14.978Z,99.90
2022-09-20T10:34:21.872Z,99.90
2022-09-20T10:37:29.013Z,99.90
2022-09-20T10:40:55.328Z,99.90
2022-09-20T10:44:18.363Z,99.90
2022-09-20T10:47:22.158Z,99.90
2022-09-20T10:50:17.090Z,99.90
2022-09-20T10:53:36.819Z,99.90
2022-09-20T10:56:29.306Z,99.90
2022-09-20T10:59:39.973Z,99.90
2022-09-20T11:03:19.389Z,99.90
2022-09-20T11:06:21.253Z,99.90
2022-09-20T11:09:19.946Z,99.90
2022-09-20T11:12:25.711Z,99.90
2022-09-20T11:15:14.558Z,99.90
2022-09-20T11:18:08.927Z,99.90
2022-09-20T11:21:36.686Z,99.90
2022-09-20T11:24:32.293Z,99.90
2022-09-20T11:27:18.463Z,99.90
2022-09-20T11:30:04.699Z,99.90
2022-09-20T11:33:06.105Z,99.90
2022-09-20T11:35:51.546Z,99.90
2022-09-20T11:38:40.331Z,99.90
2022-09-20T11:41:29.675Z,99.90
2022-09-20T11:44:07.796Z,99.90
2022-09-20T11:46:48.000Z,99.90
2022-09-20T11:50:13.878Z,99.90
2022-09-20T11:53:20.750Z,99.90
2022-09-20T11:56:25.249Z,99.90
2022-09-20T11:59:07.220Z,99.90
2022-09-20T12:02:01.792Z,99.90
2022-09-20T12:04:54.156Z,99.90
2022-09-20T12:07:33.195Z,99.90
2022-09-20T12:10:25.170Z,99.90
2022-09-20T12:13:05.738Z,99.90
2022-09-20T12:16:16.379Z,99.90
2022-09-20T12:19:36.438Z,99.90
2022-09-20T12:22:28.095Z,99.90
2022-09-20T12:25:36.078Z,99.90
2022-09-20T12:28:15.119Z,99.90
2022-09-20T12:30:47.154Z,99.90
2022-09-20T12:34:14.663Z,99.90
2022-09-20T12:37:10.304Z,99.90
2022-09-20T12:39:55.674Z,99.90
2022-09-20T12:42:33.073Z,99.90
2022-09-20T12:45:16.418Z,99.90
2022-09-20T12:47:55.542Z,99.90
2022-09-20T12:50:47.074Z,99.90
2022-09-20T12:53:39.951Z,99.90
2022-09-20T12:56:20.034Z,99.90
2022-09-20T12:58:56.174Z,99.90
2022-09-20T13:01:31.076Z,99.90
2022-09-20T13:04:52.652Z,99.90
2022-09-20T13:07:32.139Z,98.10
2022-09-20T13:10:29.155Z,96.10
2022-09-20T13:13:42.329Z,97.40
2022-09-20T13:16:37.187Z,97.20
2022-09-20T13:19:38.947Z,95.80
2022-09-20T13:22:25.327Z,98.20
2022-09-20T13:25:02.941Z,97.90
2022-09-20T13:28:10.398Z,98.80
2022-09-20T13:31:20.613Z,99.20
2022-09-20T13:33:55.383Z,99.70
2022-09-20T13:36:51.891Z,99.80
2022-09-20T13:39:36.256Z,99.90
2022-09-20T13:42:16.341Z,99.90
2022-09-20T13:44:51.337Z,99.90
2022-09-20T13:47:23.382Z,99.90
2022-09-20T13:50:33.014Z,99.90
2022-09-20T13:53:39.476Z,99.90
2022-09-20T13:56:17.013Z,99.90
2022-09-20T13:58:54.026Z,99.90
2022-09-20T14:01:36.100Z,99.90
2022-09-20T14:04:21.698Z,99.90
2022-09-20T14:06:58.298Z,99.90
2022-09-20T14:09:39.413Z,99.90
2022-09-20T14:12:14.071Z,99.90
2022-09-20T14:14:46.676Z,99.90
2022-09-20T14:17:24.381Z,99.90
2022-09-20T14:19:58.794Z,99.90
2022-09-20T14:22:31.094Z,99.90
2022-09-20T14:25:20.899Z,99.90
2022-09-20T14:28:20.349Z,99.90
2022-09-20T14:31:07.264Z,99.90
2022-09-20T14:34:02.262Z,99.90
2022-09-20T14:36:34.956Z,99.90
2022-09-20T14:39:15.457Z,99.90
2022-09-20T14:41:50.789Z,99.90
2022-09-20T14:44:33.015Z,99.90
2022-09-20T14:47:15.469Z,99.90
2022-09-20T14:49:47.610Z,99.90
2022-09-20T14:52:26.788Z,99.90
2022-09-20T14:55:10.144Z,99.90
2022-09-20T14:57:50.688Z,99.90
2022-09-20T15:00:23.971Z,99.90
2022-09-20T15:03:02.576Z,99.90
2022-09-20T15:05:37.360Z,99.90
2022-09-20T15:08:14.560Z,99.90
2022-09-20T15:10:48.222Z,99.90
2022-09-20T15:13:20.302Z,99.90
2022-09-20T15:15:53.868Z,99.90
2022-09-20T15:18:30.334Z,99.90
2022-09-20T15:21:06.623Z,99.90
2022-09-20T15:23:39.780Z,99.90
2022-09-20T15:26:14.108Z,99.90
2022-09-20T15:28:47.243Z,99.90
2022-09-20T15:31:20.348Z,99.90
2022-09-20T15:33:52.656Z,99.90
2022-09-20T15:36:24.897Z,99.90
2022-09-20T15:39:02.755Z,99.90
2022-09-20T15:41:37.075Z,99.90
2022-09-20T15:44:09.375Z,99.90
2022-09-20T15:46:42.186Z,99.90
2022-09-20T15:49:14.480Z,99.90
2022-09-20T15:51:48.556Z,99.90
2022-09-20T15:54:21.480Z,99.90
2022-09-20T15:56:53.580Z,99.90
2022-09-20T15:59:26.314Z,99.90
2022-09-20T16:02:00.993Z,99.90
2022-09-20T16:04:35.195Z,99.90
2022-09-20T16:07:09.817Z,99.90
2022-09-20T16:09:42.250Z,99.90
2022-09-20T16:12:15.401Z,99.90
2022-09-20T16:14:49.738Z,99.90
2022-09-20T16:17:42.204Z,99.90
2022-09-20T16:20:34.045Z,99.90
2022-09-20T16:23:06.045Z,99.90
2022-09-20T16:25:38.124Z,99.90
2022-09-20T16:28:10.340Z,99.90
2022-09-20T16:30:44.868Z,99.90
2022-09-20T16:33:26.979Z,99.90
2022-09-20T16:35:59.465Z,99.90
2022-09-20T16:38:32.768Z,99.90
2022-09-20T16:41:06.153Z,99.90
2022-09-20T16:43:39.312Z,99.90
2022-09-20T16:46:13.281Z,99.90
2022-09-20T16:48:47.530Z,99.90
2022-09-20T16:51:29.919Z,99.90
2022-09-20T16:54:12.753Z,99.90
2022-09-20T16:56:50.853Z,99.90
2022-09-20T16:59:24.191Z,99.90
2022-09-20T17:01:56.905Z,99.90
2022-09-20T17:04:30.218Z,99.90
2022-09-20T17:07:02.363Z,99.90
2022-09-20T17:09:34.446Z,99.90
2022-09-20T17:12:09.281Z,99.90
2022-09-20T17:14:41.342Z,99.90
2022-09-20T17:17:14.394Z,99.90
2022-09-20T17:19:46.400Z,99.90
2022-09-20T17:22:18.424Z,99.90
2022-09-20T17:24:50.410Z,99.90
2022-09-20T17:27:22.580Z,99.90
2022-09-20T17:29:55.398Z,99.90
2022-09-20T17:32:28.384Z,99.90
2022-09-20T17:35:00.678Z,99.90
2022-09-20T17:37:32.642Z,99.90
2022-09-20T17:40:06.501Z,99.90
2022-09-20T17:42:39.277Z,99.90
2022-09-20T17:45:12.392Z,99.90
2022-09-20T17:47:44.547Z,99.90
2022-09-20T17:50:16.864Z,99.90
2022-09-20T17:52:48.959Z,99.90
2022-09-20T17:55:21.051Z,99.90
2022-09-20T17:57:54.000Z,99.90
2022-09-20T18:00:26.728Z,99.90
2022-09-20T18:03:01.577Z,99.90
2022-09-20T18:05:36.630Z,99.90
2022-09-20T18:08:09.164Z,99.90
2022-09-20T18:10:53.128Z,99.90
2022-09-20T18:13:27.988Z,99.90
2022-09-20T18:16:01.586Z,99.90
2022-09-20T18:18:33.719Z,99.90
2022-09-20T18:21:16.777Z,99.90
2022-09-20T18:23:53.834Z,99.90
2022-09-20T18:26:30.274Z,99.90
2022-09-20T18:29:09.519Z,99.90
2022-09-20T18:31:50.144Z,99.90
2022-09-20T18:34:26.903Z,99.90
2022-09-20T18:37:03.867Z,99.90
2022-09-20T18:39:39.655Z,99.90
2022-09-20T18:42:11.804Z,99.90
2022-09-20T18:44:45.625Z,99.90
2022-09-20T18:47:19.239Z,99.90
2022-09-20T18:49:51.489Z,99.90
2022-09-20T18:52:24.215Z,99.90
2022-09-20T18:54:57.291Z,99.90
2022-09-20T18:57:31.976Z,99.90
2022-09-20T19:00:05.815Z,99.90
2022-09-20T19:02:58.619Z,99.90
2022-09-20T19:05:54.129Z,99.90
2022-09-20T19:08:39.914Z,99.90
2022-09-20T19:11:30.514Z,99.90
2022-09-20T19:14:29.165Z,99.90
2022-09-20T19:17:37.147Z,99.90
2022-09-20T19:21:01.432Z,99.90
2022-09-20T19:24:15.601Z,99.90
2022-09-20T19:27:12.909Z,99.90
2022-09-20T19:29:46.215Z,99.90
2022-09-20T19:32:21.818Z,99.90
2022-09-20T19:35:02.069Z,99.90
2022-09-20T19:37:53.198Z,99.90
2022-09-20T19:41:02.432Z,99.90
2022-09-20T19:44:14.547Z,99.90
2022-09-20T19:47:22.050Z,99.90
2022-09-20T19:50:27.967Z,99.90
2022-09-20T19:53:12.385Z,99.90
2022-09-20T19:55:59.586Z,99.90
2022-09-20T19:58:43.706Z,99.90
2022-09-20T20:01:17.036Z,99.90
2022-09-20T20:03:57.365Z,99.90
2022-09-20T20:06:49.525Z,99.90
2022-09-20T20:10:15.583Z,99.90
2022-09-20T20:13:33.640Z,99.90
2022-09-20T20:16:41.570Z,99.90
2022-09-20T20:19:54.853Z,99.90
2022-09-20T20:23:34.743Z,99.90
2022-09-20T20:26:26.322Z,99.90
2022-09-20T20:28:58.441Z,99.90
2022-09-20T20:31:31.137Z,99.90
2022-09-20T20:34:03.794Z,99.90
2022-09-20T20:36:35.773Z,99.90
2022-09-20T20:39:08.233Z,99.90
2022-09-20T20:41:42.603Z,99.90
2022-09-20T20:44:14.928Z,99.90
2022-09-20T20:46:50.857Z,99.90
2022-09-20T20:49:23.340Z,99.90
2022-09-20T20:51:56.529Z,99.90
2022-09-20T20:54:31.283Z,99.90
2022-09-20T20:57:03.372Z,99.90
2022-09-20T20:59:35.378Z,99.90
2022-09-20T21:02:08.597Z,99.90
2022-09-20T21:04:41.144Z,99.90
2022-09-20T21:07:13.324Z,99.90
2022-09-20T21:09:47.660Z,99.90
2022-09-20T21:12:19.616Z,99.90
2022-09-20T21:14:52.624Z,99.90
2022-09-20T21:17:25.050Z,99.90
2022-09-20T21:19:57.496Z,99.90
2022-09-20T21:22:29.701Z,99.90
2022-09-20T21:25:05.250Z,99.90
2022-09-20T21:27:38.994Z,99.90
2022-09-20T21:30:11.909Z,99.90
2022-09-20T21:32:44.498Z,99.90
2022-09-20T21:35:16.949Z,99.90
2022-09-20T21:37:49.459Z,99.90
2022-09-20T21:40:21.446Z,99.90
2022-09-20T21:42:53.536Z,99.90
2022-09-20T21:45:27.968Z,99.90
2022-09-20T21:48:00.390Z,99.90
2022-09-20T21:50:33.772Z,99.90
2022-09-20T21:53:06.132Z,99.90
2022-09-20T21:55:38.126Z,99.90
2022-09-20T21:58:10.212Z,99.90
2022-09-20T22:00:43.230Z,99.90
2022-09-20T22:03:34.588Z,99.90
2022-09-20T22:06:10.650Z,99.90
2022-09-20T22:09:17.216Z,99.90
2022-09-20T22:11:50.209Z,99.90
2022-09-20T22:14:22.575Z,99.90
2022-09-20T22:16:54.591Z,99.90
2022-09-20T22:19:26.634Z,99.90
2022-09-20T22:21:58.539Z,99.90
2022-09-20T22:24:30.952Z,99.90
2022-09-20T22:27:02.846Z,99.90
2022-09-20T22:29:34.896Z,99.90
2022-09-20T22:32:06.918Z,99.90
2022-09-20T22:34:38.952Z,99.90
2022-09-20T22:37:10.999Z,99.90
2022-09-20T22:39:42.941Z,99.90
2022-09-20T22:42:15.747Z,99.90
2022-09-20T22:44:47.624Z,99.90
2022-09-20T22:47:19.607Z,99.90
2022-09-20T22:49:51.585Z,99.90
2022-09-20T22:52:23.485Z,99.90
2022-09-20T22:54:55.637Z,99.90
2022-09-20T22:57:27.524Z,99.90
2022-09-20T22:59:59.632Z,99.90
2022-09-20T23:02:31.715Z,99.90
2022-09-20T23:05:03.906Z,99.90
2022-09-20T23:07:37.313Z,99.90
2022-09-20T23:10:09.726Z,99.90
2022-09-20T23:12:42.169Z,99.90
2022-09-20T23:15:15.280Z,99.90
2022-09-20T23:17:47.319Z,99.90
2022-09-20T23:20:19.276Z,99.90
2022-09-20T23:22:51.243Z,99.90
2022-09-20T23:25:23.113Z,99.90
2022-09-20T23:27:55.092Z,99.90
2022-09-20T23:30:27.047Z,99.90
2022-09-20T23:32:59.056Z,99.90
2022-09-20T23:35:31.015Z,99.90
2022-09-20T23:38:02.916Z,99.90
2022-09-20T23:40:35.236Z,99.90
2022-09-20T23:43:07.201Z,99.90
2022-09-20T23:45:41.254Z,99.90
2022-09-20T23:48:13.210Z,99.90
2022-09-20T23:50:45.213Z,99.90
2022-09-20T23:53:17.350Z,99.90
2022-09-20T23:55:50.194Z,99.90
2022-09-20T23:58:22.092Z,99.90
